createdAt,value
2018-07-20T00:00:08.512Z,101134.16
2018-07-20T00:02:36.532Z,101134.16
2018-07-20T00:05:05.344Z,101136.59
2018-07-20T00:07:33.373Z,101132.56
2018-07-20T00:10:01.398Z,101126.42
2018-07-20T00:12:29.400Z,101122.09
2018-07-20T00:14:57.449Z,101119.60
2018-07-20T00:17:25.457Z,101118.91
2018-07-20T00:19:53.710Z,101112.72
2018-07-20T00:22:21.945Z,101110.38
2018-07-20T00:24:49.967Z,101103.92
2018-07-20T00:27:17.989Z,101103.55
2018-07-20T00:29:46.050Z,101098.69
2018-07-20T00:32:14.093Z,101095.19
2018-07-20T00:34:42.109Z,101090.95
2018-07-20T00:37:10.221Z,101096.16
2018-07-20T00:39:38.296Z,101088.48
2018-07-20T00:42:06.312Z,101090.75
2018-07-20T00:44:34.435Z,101085.09
2018-07-20T00:47:02.479Z,101080.80
2018-07-20T00:49:30.488Z,101086.37
2018-07-20T00:51:58.512Z,101080.39
2018-07-20T00:54:26.529Z,101082.02
2018-07-20T00:56:54.570Z,101073.02
2018-07-20T00:59:22.608Z,101077.56
2018-07-20T01:01:50.612Z,101072.58
2018-07-20T01:04:19.021Z,101072.10
2018-07-20T01:06:47.185Z,101063.84
2018-07-20T01:09:15.234Z,101068.38
2018-07-20T01:11:43.526Z,101057.73
2018-07-20T01:14:11.557Z,101059.14
2018-07-20T01:16:39.822Z,101057.61
2018-07-20T01:19:07.627Z,101055.39
2018-07-20T01:21:35.644Z,101055.17
2018-07-20T01:24:03.847Z,101060.00
2018-07-20T01:26:31.913Z,101053.03
2018-07-20T01:29:00.202Z,101054.29
2018-07-20T01:31:28.217Z,101055.28
2018-07-20T01:33:56.284Z,101045.81
2018-07-20T01:36:24.304Z,101048.82
2018-07-20T01:38:52.338Z,101051.10
2018-07-20T01:41:20.357Z,101045.33
2018-07-20T01:43:48.443Z,101043.17
2018-07-20T01:46:16.573Z,101043.91
2018-07-20T01:48:44.890Z,101041.20
2018-07-20T01:51:12.977Z,101041.20
2018-07-20T01:53:41.006Z,101043.16
2018-07-20T01:56:09.264Z,101041.50
2018-07-20T01:58:37.284Z,101037.32
2018-07-20T02:01:05.304Z,101043.38
2018-07-20T02:03:33.338Z,101054.70
2018-07-20T02:06:01.545Z,101047.39
2018-07-20T02:08:29.569Z,101042.88
2018-07-20T02:10:59.459Z,101040.58
2018-07-20T02:13:27.633Z,101043.52
2018-07-20T02:15:56.005Z,101038.02
2018-07-20T02:18:24.182Z,101033.84
2018-07-20T02:21:08.797Z,101034.31
2018-07-20T02:23:36.833Z,101032.52
2018-07-20T02:26:05.294Z,101031.13
2018-07-20T02:28:33.352Z,101032.59
2018-07-20T02:31:01.375Z,101024.11
2018-07-20T02:33:29.404Z,101030.83
2018-07-20T02:35:57.428Z,101034.23
2018-07-20T02:38:25.525Z,101028.26
2018-07-20T02:40:53.561Z,101025.69
2018-07-20T02:43:21.608Z,101027.27
2018-07-20T02:45:49.712Z,101021.17
2018-07-20T02:48:17.835Z,101025.47
2018-07-20T02:50:45.863Z,101028.95
2018-07-20T02:53:13.909Z,101023.59
2018-07-20T02:55:41.915Z,101021.20
2018-07-20T02:58:09.941Z,101028.31
2018-07-20T03:00:38.009Z,101025.31
2018-07-20T03:03:06.378Z,101022.34
2018-07-20T03:05:34.409Z,101026.92
2018-07-20T03:08:02.451Z,101023.69
2018-07-20T03:10:30.686Z,101018.19
2018-07-20T03:12:58.847Z,101019.62
2018-07-20T03:15:27.041Z,101017.41
2018-07-20T03:17:55.068Z,101009.75
2018-07-20T03:20:23.102Z,101019.20
2018-07-20T03:22:51.155Z,101015.39
2018-07-20T03:25:19.182Z,101015.50
2018-07-20T03:27:47.209Z,101009.52
2018-07-20T03:30:15.336Z,101011.75
2018-07-20T03:32:43.420Z,101006.25
2018-07-20T03:35:11.406Z,100998.61
2018-07-20T03:37:39.428Z,101007.01
2018-07-20T03:40:07.464Z,101001.51
2018-07-20T03:42:35.515Z,100997.95
2018-07-20T03:45:03.657Z,101004.06
2018-07-20T03:47:31.686Z,100996.29
2018-07-20T03:49:59.737Z,100997.75
2018-07-20T03:52:27.792Z,101001.82
2018-07-20T03:54:55.828Z,101004.13
2018-07-20T03:57:23.868Z,100996.69
2018-07-20T03:59:51.885Z,100995.37
2018-07-20T04:02:19.939Z,100998.63
2018-07-20T04:04:48.029Z,100993.02
2018-07-20T04:07:16.081Z,100987.91
2018-07-20T04:09:44.131Z,100985.48
2018-07-20T04:12:12.305Z,100990.15
2018-07-20T04:14:40.342Z,100987.03
2018-07-20T04:17:08.847Z,100985.02
2018-07-20T04:19:36.876Z,100985.34
2018-07-20T04:22:05.012Z,100991.61
2018-07-20T04:24:33.044Z,100988.50
2018-07-20T04:27:01.072Z,100988.35
2018-07-20T04:29:29.198Z,100987.23
2018-07-20T04:31:57.287Z,100986.61
2018-07-20T04:34:25.319Z,100990.09
2018-07-20T04:36:53.888Z,100985.29
2018-07-20T04:39:21.920Z,100987.59
2018-07-20T04:41:49.980Z,100990.38
2018-07-20T04:44:18.226Z,100986.27
2018-07-20T04:46:46.253Z,100986.05
2018-07-20T04:49:14.348Z,100988.07
2018-07-20T04:51:42.720Z,100985.80
2018-07-20T04:54:10.773Z,100988.77
2018-07-20T04:56:39.056Z,100985.72
2018-07-20T04:59:07.092Z,100981.47
2018-07-20T05:01:35.131Z,100981.22
2018-07-20T05:04:03.275Z,100983.44
2018-07-20T05:06:31.333Z,100982.20
2018-07-20T05:08:59.373Z,100989.72
2018-07-20T05:11:27.629Z,100978.91
2018-07-20T05:13:55.661Z,100984.73
2018-07-20T05:16:23.752Z,100986.98
2018-07-20T05:18:51.801Z,100985.73
2018-07-20T05:21:19.840Z,100986.63
2018-07-20T05:23:47.880Z,100992.27
2018-07-20T05:26:15.913Z,100983.28
2018-07-20T05:28:44.108Z,100982.30
2018-07-20T05:31:12.209Z,100980.72
2018-07-20T05:33:40.226Z,100973.20
2018-07-20T05:36:08.354Z,100969.62
2018-07-20T05:38:36.402Z,100969.55
2018-07-20T05:41:04.951Z,100971.63
2018-07-20T05:43:32.996Z,100975.19
2018-07-20T05:46:01.043Z,100970.60
2018-07-20T05:48:29.092Z,100976.65
2018-07-20T05:50:57.225Z,100972.39
2018-07-20T05:53:25.312Z,100974.95
2018-07-20T05:55:53.377Z,100974.55
2018-07-20T05:58:21.439Z,100968.55
2018-07-20T06:00:49.688Z,100965.86
2018-07-20T06:03:17.733Z,100973.77
2018-07-20T06:05:45.774Z,100959.57
2018-07-20T06:08:13.829Z,100969.48
2018-07-20T06:10:41.889Z,100967.55
2018-07-20T06:13:09.963Z,100962.14
2018-07-20T06:15:38.000Z,100964.79
2018-07-20T06:18:06.749Z,100960.18
2018-07-20T06:20:34.780Z,100957.83
2018-07-20T06:23:02.823Z,100966.27
2018-07-20T06:25:30.854Z,100967.80
2018-07-20T06:27:58.888Z,100963.38
2018-07-20T06:30:26.916Z,100960.91
2018-07-20T06:32:54.977Z,100971.03
2018-07-20T06:35:23.016Z,100969.63
2018-07-20T06:37:51.054Z,100973.20
2018-07-20T06:40:19.692Z,100968.48
2018-07-20T06:42:47.724Z,100970.47
2018-07-20T06:45:15.845Z,100963.92
2018-07-20T06:47:44.095Z,100962.02
2018-07-20T06:50:17.073Z,100961.41
2018-07-20T06:52:46.133Z,100963.95
2018-07-20T06:55:14.285Z,100969.32
2018-07-20T06:57:42.700Z,100964.67
2018-07-20T07:00:11.038Z,100964.16
2018-07-20T07:02:39.233Z,100966.00
2018-07-20T07:05:08.576Z,100962.48
2018-07-20T07:07:36.796Z,100963.78
2018-07-20T07:10:05.452Z,100967.05
2018-07-20T07:12:33.538Z,100961.96
2018-07-20T07:15:01.633Z,100962.20
2018-07-20T07:17:29.625Z,100958.36
2018-07-20T07:19:57.748Z,100959.70
2018-07-20T07:22:25.784Z,100957.44
2018-07-20T07:24:54.064Z,100958.61
2018-07-20T07:27:22.277Z,100958.48
2018-07-20T07:29:50.305Z,100956.77
2018-07-20T07:32:18.629Z,100957.95
2018-07-20T07:34:46.674Z,100956.92
2018-07-20T07:37:14.840Z,100959.44
2018-07-20T07:39:42.900Z,100960.55
2018-07-20T07:42:10.982Z,100958.25
2018-07-20T07:44:38.998Z,100959.13
2018-07-20T07:47:07.037Z,100953.87
2018-07-20T07:49:35.215Z,100966.38
2018-07-20T07:52:03.305Z,100961.17
2018-07-20T07:54:31.377Z,100959.69
2018-07-20T07:56:59.422Z,100963.53
2018-07-20T07:59:27.588Z,100962.59
2018-07-20T08:01:56.180Z,100959.27
2018-07-20T08:04:24.261Z,100959.88
2018-07-20T08:06:52.333Z,100961.78
2018-07-20T08:09:20.409Z,100963.81
2018-07-20T08:11:48.509Z,100955.59
2018-07-20T08:14:16.553Z,100956.97
2018-07-20T08:16:44.785Z,100956.92
2018-07-20T08:19:12.832Z,100955.17
2018-07-20T08:21:40.882Z,100957.90
2018-07-20T08:24:08.933Z,100955.25
2018-07-20T08:26:37.251Z,100959.06
2018-07-20T08:29:05.508Z,100955.06
2018-07-20T08:31:33.548Z,100955.75
2018-07-20T08:34:01.577Z,100962.66
2018-07-20T08:36:29.609Z,100962.04
2018-07-20T08:38:57.628Z,100958.77
2018-07-20T08:41:25.659Z,100951.22
2018-07-20T08:43:53.702Z,100946.68
2018-07-20T08:46:21.766Z,100951.56
2018-07-20T08:48:49.845Z,100954.06
2018-07-20T08:51:18.077Z,100946.00
2018-07-20T08:53:46.093Z,100946.68
2018-07-20T08:56:14.146Z,100948.22
2018-07-20T08:58:42.189Z,100948.13
2018-07-20T09:01:10.672Z,100952.53
2018-07-20T09:03:51.729Z,100951.14
2018-07-20T09:06:26.110Z,100946.03
2018-07-20T09:08:54.129Z,100944.39
2018-07-20T09:11:22.165Z,100942.74
2018-07-20T09:13:57.872Z,100940.44
2018-07-20T09:16:25.837Z,100945.91
2018-07-20T09:18:53.869Z,100938.37
2018-07-20T09:21:22.593Z,100935.19
2018-07-20T09:23:50.606Z,100934.63
2018-07-20T09:26:18.648Z,100937.73
2018-07-20T09:28:46.704Z,100932.85
2018-07-20T09:31:14.749Z,100932.42
2018-07-20T09:33:42.780Z,100934.23
2018-07-20T09:36:10.816Z,100929.64
2018-07-20T09:38:38.901Z,100931.33
2018-07-20T09:41:06.929Z,100934.45
2018-07-20T09:43:35.229Z,100931.13
2018-07-20T09:46:03.280Z,100931.57
2018-07-20T09:48:31.299Z,100933.06
2018-07-20T09:50:59.336Z,100926.30
2018-07-20T09:53:27.377Z,100927.22
2018-07-20T09:55:55.410Z,100926.91
2018-07-20T09:58:23.496Z,100917.38
2018-07-20T10:00:52.401Z,100914.64
2018-07-20T10:03:21.497Z,100914.48
2018-07-20T10:05:49.594Z,100915.52
2018-07-20T10:08:18.838Z,100912.70
2018-07-20T10:10:47.116Z,100917.38
2018-07-20T10:13:15.173Z,100917.66
2018-07-20T10:15:43.250Z,100915.69
2018-07-20T10:18:11.283Z,100916.83
2018-07-20T10:20:39.337Z,100909.80
2018-07-20T10:23:07.355Z,100905.89
2018-07-20T10:25:35.576Z,100910.38
2018-07-20T10:28:03.666Z,100905.14
2018-07-20T10:30:31.902Z,100905.72
2018-07-20T10:33:00.015Z,100906.20
2018-07-20T10:35:28.056Z,100897.05
2018-07-20T10:37:56.116Z,100894.28
2018-07-20T10:40:27.160Z,100889.70
2018-07-20T10:42:56.789Z,100895.98
2018-07-20T10:45:25.133Z,100891.82
2018-07-20T10:47:53.162Z,100898.31
2018-07-20T10:50:21.190Z,100896.94
2018-07-20T10:52:49.516Z,100893.25
2018-07-20T10:55:18.015Z,100901.64
2018-07-20T10:57:46.661Z,100891.97
2018-07-20T11:00:14.961Z,100891.59
2018-07-20T11:02:42.981Z,100888.94
2018-07-20T11:05:11.126Z,100896.21
2018-07-20T11:07:39.165Z,100892.84
2018-07-20T11:10:07.202Z,100896.11
2018-07-20T11:12:35.550Z,100891.17
2018-07-20T11:15:05.374Z,100888.20
2018-07-20T11:17:33.497Z,100886.39
2018-07-20T11:20:01.540Z,100880.99
2018-07-20T11:22:29.560Z,100880.00
2018-07-20T11:24:57.607Z,100879.95
2018-07-20T11:27:26.188Z,100868.31
2018-07-20T11:29:54.204Z,100861.69
2018-07-20T11:32:22.277Z,100865.68
2018-07-20T11:34:50.320Z,100866.02
2018-07-20T11:37:18.461Z,100859.88
2018-07-20T11:39:46.493Z,100859.41
2018-07-20T11:42:14.543Z,100855.05
2018-07-20T11:44:42.580Z,100853.23
2018-07-20T11:47:10.593Z,100850.37
2018-07-20T11:49:38.675Z,100847.94
2018-07-20T11:52:07.097Z,100845.54
2018-07-20T11:54:35.130Z,100846.77
2018-07-20T11:57:03.303Z,100834.89
2018-07-20T11:59:31.444Z,100836.86
2018-07-20T12:01:59.547Z,100841.77
2018-07-20T12:04:27.577Z,100835.25
2018-07-20T12:06:55.693Z,100826.39
2018-07-20T12:09:23.678Z,100824.33
2018-07-20T12:11:51.879Z,100825.05
2018-07-20T12:14:19.920Z,100826.03
2018-07-20T12:16:47.985Z,100819.83
2018-07-20T12:19:16.032Z,100824.59
2018-07-20T12:21:44.076Z,100818.28
2018-07-20T12:24:12.101Z,100812.67
2018-07-20T12:26:40.146Z,100816.48
2018-07-20T12:29:08.210Z,100814.62
2018-07-20T12:31:36.389Z,100806.69
2018-07-20T12:34:05.238Z,100807.85
2018-07-20T12:36:33.225Z,100806.10
2018-07-20T12:39:01.293Z,100812.16
2018-07-20T12:41:29.334Z,100809.25
2018-07-20T12:43:57.390Z,100805.72
2018-07-20T12:46:25.678Z,100800.88
2018-07-20T12:48:53.740Z,100805.73
2018-07-20T12:51:21.793Z,100801.99
2018-07-20T12:53:49.838Z,100800.43
2018-07-20T12:56:17.893Z,100789.08
2018-07-20T12:58:46.022Z,100791.74
2018-07-20T13:01:14.800Z,100792.02
2018-07-20T13:03:42.850Z,100803.78
2018-07-20T13:06:10.905Z,100792.85
2018-07-20T13:08:39.241Z,100791.94
2018-07-20T13:11:07.259Z,100787.88
2018-07-20T13:13:35.331Z,100786.00
2018-07-20T13:16:05.137Z,100785.83
2018-07-20T13:18:33.182Z,100778.43
2018-07-20T13:21:01.226Z,100784.53
2018-07-20T13:23:29.259Z,100785.27
2018-07-20T13:25:57.292Z,100776.55
2018-07-20T13:28:25.320Z,100777.80
2018-07-20T13:30:53.345Z,100770.47
2018-07-20T13:33:21.836Z,100770.38
2018-07-20T13:35:49.868Z,100768.98
2018-07-20T13:38:17.960Z,100758.55
2018-07-20T13:40:46.028Z,100751.96
2018-07-20T13:43:14.072Z,100750.08
2018-07-20T13:45:42.132Z,100745.59
2018-07-20T13:48:10.118Z,100742.72
2018-07-20T13:50:38.164Z,100734.66
2018-07-20T13:53:06.311Z,100735.13
2018-07-20T13:55:34.301Z,100735.17
2018-07-20T13:58:02.329Z,100739.59
2018-07-20T14:00:30.599Z,100735.12
2018-07-20T14:02:58.643Z,100730.81
2018-07-20T14:05:26.679Z,100726.95
2018-07-20T14:07:54.702Z,100725.19
2018-07-20T14:10:22.756Z,100724.41
2018-07-20T14:12:50.799Z,100718.94
2018-07-20T14:15:19.076Z,100718.23
2018-07-20T14:17:53.996Z,100706.41
2018-07-20T14:20:22.031Z,100709.02
2018-07-20T14:22:50.618Z,100712.43
2018-07-20T14:25:18.652Z,100715.09
2018-07-20T14:27:46.697Z,100711.34
2018-07-20T14:30:14.737Z,100710.25
2018-07-20T14:32:42.760Z,100712.63
2018-07-20T14:35:10.788Z,100709.50
2018-07-20T14:37:39.369Z,100712.07
2018-07-20T14:40:07.920Z,100703.84
2018-07-20T14:42:35.973Z,100697.86
2018-07-20T14:45:04.373Z,100701.04
2018-07-20T14:47:32.416Z,100702.55
2018-07-20T14:50:00.447Z,100705.52
2018-07-20T14:52:28.491Z,100702.81
2018-07-20T14:54:56.595Z,100703.66
2018-07-20T14:57:24.577Z,100698.53
2018-07-20T14:59:52.633Z,100694.67
2018-07-20T15:02:20.668Z,100687.70
2018-07-20T15:04:48.766Z,100687.50
2018-07-20T15:07:16.760Z,100691.30
2018-07-20T15:09:44.782Z,100686.34
2018-07-20T15:12:12.858Z,100685.57
2018-07-20T15:14:40.857Z,100672.97
2018-07-20T15:17:09.101Z,100674.00
2018-07-20T15:19:37.129Z,100674.08
2018-07-20T15:22:05.514Z,100665.38
2018-07-20T15:24:33.594Z,100661.89
2018-07-20T15:27:01.617Z,100665.39
2018-07-20T15:29:29.658Z,100663.56
2018-07-20T15:31:57.806Z,100666.28
2018-07-20T15:34:25.824Z,100666.99
2018-07-20T15:36:53.860Z,100676.45
2018-07-20T15:39:22.246Z,100663.25
2018-07-20T15:41:50.220Z,100660.84
2018-07-20T15:44:18.266Z,100655.51
2018-07-20T15:46:46.585Z,100647.13
2018-07-20T15:49:14.642Z,100651.27
2018-07-20T15:53:34.771Z,100642.30
2018-07-20T15:54:10.740Z,100639.59
2018-07-20T15:56:38.742Z,100639.23
2018-07-20T15:59:06.774Z,100630.55
2018-07-20T16:01:35.006Z,100638.47
2018-07-20T16:04:03.046Z,100633.19
2018-07-20T16:06:31.080Z,100627.82
2018-07-20T16:08:59.132Z,100629.66
2018-07-20T16:11:27.160Z,100629.19
2018-07-20T16:13:55.206Z,100632.39
2018-07-20T16:16:23.226Z,100626.59
2018-07-20T16:18:51.252Z,100625.83
2018-07-20T16:21:19.277Z,100624.94
2018-07-20T16:23:47.630Z,100626.41
2018-07-20T16:26:15.668Z,100624.66
2018-07-20T16:28:43.704Z,100620.82
2018-07-20T16:31:11.700Z,100619.38
2018-07-20T16:33:39.745Z,100620.91
2018-07-20T16:36:07.939Z,100616.37
2018-07-20T16:38:36.008Z,100621.59
2018-07-20T16:41:04.991Z,100616.67
2018-07-20T16:43:33.010Z,100619.33
2018-07-20T16:46:01.041Z,100614.71
2018-07-20T16:48:29.065Z,100611.40
2018-07-20T16:50:57.494Z,100605.86
2018-07-20T16:53:25.519Z,100609.15
2018-07-20T16:55:53.533Z,100609.20
2018-07-20T16:58:21.654Z,100604.25
2018-07-20T17:00:49.637Z,100606.27
2018-07-20T17:03:17.662Z,100600.95
2018-07-20T17:05:45.913Z,100599.13
2018-07-20T17:08:14.144Z,100600.79
2018-07-20T17:10:42.363Z,100600.48
2018-07-20T17:13:10.409Z,100596.84
2018-07-20T17:15:38.522Z,100594.06
2018-07-20T17:18:06.559Z,100597.98
2018-07-20T17:20:34.828Z,100598.35
2018-07-20T17:23:03.136Z,100596.73
2018-07-20T17:25:31.159Z,100593.99
2018-07-20T17:27:59.280Z,100594.06
2018-07-20T17:30:27.248Z,100597.42
2018-07-20T17:32:55.276Z,100603.11
2018-07-20T17:35:23.285Z,100595.94
2018-07-20T17:37:51.317Z,100599.09
2018-07-20T17:40:19.332Z,100596.92
2018-07-20T17:42:47.353Z,100602.68
2018-07-20T17:45:15.407Z,100601.52
2018-07-20T17:47:43.405Z,100601.29
2018-07-20T17:50:11.578Z,100602.92
2018-07-20T17:52:39.618Z,100599.41
2018-07-20T17:55:07.664Z,100610.81
2018-07-20T17:57:35.696Z,100604.66
2018-07-20T18:00:03.818Z,100596.97
2018-07-20T18:02:31.852Z,100590.41
2018-07-20T18:04:59.874Z,100593.17
2018-07-20T18:07:27.916Z,100594.31
2018-07-20T18:09:55.950Z,100594.47
2018-07-20T18:12:23.976Z,100586.80
2018-07-20T18:14:52.040Z,100592.20
2018-07-20T18:17:20.072Z,100596.87
2018-07-20T18:19:48.100Z,100587.83
2018-07-20T18:22:16.228Z,100590.95
2018-07-20T18:24:44.249Z,100591.73
2018-07-20T18:27:13.215Z,100588.08
2018-07-20T18:29:41.161Z,100590.88
2018-07-20T18:32:09.273Z,100591.08
2018-07-20T18:34:37.298Z,100586.89
2018-07-20T18:37:05.344Z,100594.83
2018-07-20T18:39:33.373Z,100593.28
2018-07-20T18:42:01.408Z,100597.86
2018-07-20T18:44:29.431Z,100591.48
2018-07-20T18:46:57.454Z,100588.52
2018-07-20T18:49:25.470Z,100595.02
2018-07-20T18:51:53.542Z,100595.75
2018-07-20T18:54:21.536Z,100596.47
2018-07-20T18:56:49.553Z,100599.95
2018-07-20T18:59:17.592Z,100592.87
2018-07-20T19:01:45.610Z,100592.98
2018-07-20T19:04:13.655Z,100596.16
2018-07-20T19:06:41.721Z,100596.47
2018-07-20T19:09:10.920Z,100595.85
2018-07-20T19:11:39.078Z,100596.79
2018-07-20T19:14:07.107Z,100599.56
2018-07-20T19:16:35.170Z,100599.45
2018-07-20T19:19:03.228Z,100595.03
2018-07-20T19:21:31.293Z,100595.48
2018-07-20T19:23:59.415Z,100604.75
2018-07-20T19:26:27.352Z,100604.73
2018-07-20T19:28:55.371Z,100600.81
2018-07-20T19:31:23.449Z,100601.12
2018-07-20T19:33:52.506Z,100606.56
2018-07-20T19:36:20.529Z,100612.22
2018-07-20T19:38:48.576Z,100609.01
2018-07-20T19:41:16.841Z,100609.81
2018-07-20T19:43:44.885Z,100603.59
2018-07-20T19:46:12.904Z,100616.31
2018-07-20T19:48:40.948Z,100611.43
2018-07-20T19:51:09.009Z,100617.58
2018-07-20T19:53:37.038Z,100620.41
2018-07-20T19:56:05.058Z,100623.05
2018-07-20T19:58:33.088Z,100630.52
2018-07-20T20:01:13.337Z,100627.70
2018-07-20T20:03:48.002Z,100631.31
2018-07-20T20:06:30.996Z,100631.30
2018-07-20T20:09:00.521Z,100627.23
2018-07-20T20:11:28.543Z,100631.79
2018-07-20T20:13:56.573Z,100628.56
2018-07-20T20:16:24.595Z,100632.50
2018-07-20T20:18:52.800Z,100628.46
2018-07-20T20:21:20.817Z,100631.20
2018-07-20T20:23:49.607Z,100628.89
2018-07-20T20:26:17.789Z,100632.97
2018-07-20T20:28:52.037Z,100630.56
2018-07-20T20:31:20.068Z,100630.42
2018-07-20T20:33:48.096Z,100626.48
2018-07-20T20:36:16.384Z,100628.88
2018-07-20T20:38:44.406Z,100631.62
2018-07-20T20:41:12.452Z,100629.01
2018-07-20T20:43:40.703Z,100627.84
2018-07-20T20:46:08.770Z,100631.20
2018-07-20T20:48:37.064Z,100627.96
2018-07-20T20:51:05.399Z,100629.55
2018-07-20T20:53:33.810Z,100626.05
2018-07-20T20:56:01.837Z,100631.45
2018-07-20T20:58:29.964Z,100627.08
2018-07-20T21:00:58.948Z,100625.35
2018-07-20T21:03:27.027Z,100630.39
2018-07-20T21:05:55.081Z,100627.02
2018-07-20T21:08:23.476Z,100627.33
2018-07-20T21:10:51.526Z,100622.33
2018-07-20T21:13:19.614Z,100623.72
2018-07-20T21:15:47.645Z,100623.97
2018-07-20T21:18:15.662Z,100618.80
2018-07-20T21:20:43.678Z,100614.11
2018-07-20T21:23:11.897Z,100604.70
2018-07-20T21:25:39.948Z,100610.68
2018-07-20T21:28:07.985Z,100610.31
2018-07-20T21:30:36.152Z,100611.95
2018-07-20T21:33:04.904Z,100610.81
2018-07-20T21:35:33.165Z,100612.55
2018-07-20T21:38:01.201Z,100615.58
2018-07-20T21:40:29.247Z,100622.05
2018-07-20T21:42:57.298Z,100623.72
2018-07-20T21:45:25.770Z,100619.72
2018-07-20T21:47:53.795Z,100622.05
2018-07-20T21:50:21.884Z,100616.66
2018-07-20T21:52:49.907Z,100612.03
2018-07-20T21:55:18.067Z,100615.50
2018-07-20T21:57:46.106Z,100620.56
2018-07-20T22:00:15.717Z,100616.06
2018-07-20T22:02:43.760Z,100618.53
2018-07-20T22:05:11.792Z,100618.03
2018-07-20T22:07:39.875Z,100622.03
2018-07-20T22:10:08.393Z,100629.39
2018-07-20T22:12:36.567Z,100631.92
2018-07-20T22:15:05.442Z,100632.31
2018-07-20T22:17:33.761Z,100628.36
2018-07-20T22:20:01.826Z,100628.52
2018-07-20T22:22:29.889Z,100630.25
2018-07-20T22:24:57.971Z,100639.25
2018-07-20T22:27:26.037Z,100627.58
2018-07-20T22:29:54.133Z,100633.55
2018-07-20T22:32:22.216Z,100633.27
2018-07-20T22:34:50.565Z,100633.27
2018-07-20T22:37:18.590Z,100634.63
2018-07-20T22:39:46.621Z,100630.67
2018-07-20T22:42:14.661Z,100633.73
2018-07-20T22:44:42.957Z,100626.52
2018-07-20T22:47:11.776Z,100630.56
2018-07-20T22:49:39.820Z,100631.64
2018-07-20T22:52:08.034Z,100635.04
2018-07-20T22:54:36.093Z,100634.44
2018-07-20T22:57:04.733Z,100634.94
2018-07-20T22:59:32.782Z,100631.82
2018-07-20T23:02:00.821Z,100629.16
2018-07-20T23:04:28.941Z,100637.00
2018-07-20T23:06:56.964Z,100626.54
2018-07-20T23:09:25.008Z,100619.58
2018-07-20T23:11:53.033Z,100611.48
2018-07-20T23:14:21.080Z,100613.84
2018-07-20T23:16:49.107Z,100610.30
2018-07-20T23:19:17.148Z,100597.63
2018-07-20T23:21:45.281Z,100600.63
2018-07-20T23:24:13.310Z,100594.81
2018-07-20T23:26:41.333Z,100597.17
2018-07-20T23:29:09.416Z,100588.39
2018-07-20T23:31:37.401Z,100588.78
2018-07-20T23:34:05.702Z,100591.45
2018-07-20T23:36:33.910Z,100584.95
2018-07-20T23:39:01.941Z,100575.47
2018-07-20T23:41:30.064Z,100579.13
2018-07-20T23:43:58.120Z,100577.48
2018-07-20T23:46:26.590Z,100577.80
2018-07-20T23:48:54.614Z,100586.13
2018-07-20T23:51:22.913Z,100589.28
2018-07-20T23:53:50.944Z,100589.78
2018-07-20T23:56:18.988Z,100594.16
2018-07-20T23:58:47.014Z,100592.14
